Portada
METAR-TAF:

METAR-TAF

Aeropuertos :

Fasa, Irán

latitud: 28-58N, longitud: 053-41E, altitud: 1383 m

Observación

El informe se hizo hace 51 minutos, a las 10:00 UTC
Viento 16 kt del sur-suroeste
Temperatura 20°C
Humedad 21%
Presión 1015 hPa
Visibilidad 10 km o más
Escasas nubes a una altura de 4000 ft
Nubes dispersas a una altura de 10000 ft
Cielo nuboso a una altura de 20000 ft

METAR: OISF 201000Z 20016KT 9999 FEW040 SCT100 BKN200 20/M03 Q1014 A2996

Hora: 14:21 (10:51 UTC)


TAF: falta

Observaciones y pronósticos meteorológicos de más de 4000 aeropuertos (mensajes METAR y TAF).

Los puntos amarillos y rojos representan las estaciones disponibles.

Ponga el ratón en el punto deseado para ver el nombre de la estación.

Haga clic para ver las observaciones y los pronósticos meteorológicos.

Para cambiar el mapa : haga clic en los botones verdes con una cruz de color negro para hacer un zoom, en el botón verde con un guión para alejar o en las flechas verdes para mapas adyacentes.


METAR-TAF: